sensor_id;sensor_type;location;lat;lon;timestamp;temperature;humidity
1592;DHT22;789;51.612;7.510;2022-09-09T00:01:42;17.80;1.00
1592;DHT22;789;51.612;7.510;2022-09-09T00:04:13;17.80;1.00
1592;DHT22;789;51.612;7.510;2022-09-09T00:06:45;17.70;1.00
1592;DHT22;789;51.612;7.510;2022-09-09T00:09:15;17.70;1.00
1592;DHT22;789;51.612;7.510;2022-09-09T00:11:47;17.60;1.00
1592;DHT22;789;51.612;7.510;2022-09-09T00:14:20;17.50;1.00
1592;DHT22;789;51.612;7.510;2022-09-09T00:16:54;17.40;1.00
1592;DHT22;789;51.612;7.510;2022-09-09T00:19:26;17.30;1.00
1592;DHT22;789;51.612;7.510;2022-09-09T00:22:05;17.30;1.00
1592;DHT22;789;51.612;7.510;2022-09-09T00:24:40;17.30;1.00
1592;DHT22;789;51.612;7.510;2022-09-09T00:27:16;17.30;1.00
1592;DHT22;789;51.612;7.510;2022-09-09T00:29:50;17.30;1.00
1592;DHT22;789;51.612;7.510;2022-09-09T00:32:19;17.20;1.00
1592;DHT22;789;51.612;7.510;2022-09-09T00:34:49;17.10;1.00
1592;DHT22;789;51.612;7.510;2022-09-09T00:37:16;17.10;1.00
1592;DHT22;789;51.612;7.510;2022-09-09T00:39:46;17.10;1.00
1592;DHT22;789;51.612;7.510;2022-09-09T00:42:16;17.10;1.00
1592;DHT22;789;51.612;7.510;2022-09-09T00:44:53;17.10;1.00
1592;DHT22;789;51.612;7.510;2022-09-09T00:47:46;17.10;1.00
1592;DHT22;789;51.612;7.510;2022-09-09T00:50:32;17.20;1.00
1592;DHT22;789;51.612;7.510;2022-09-09T00:53:18;17.20;1.00
1592;DHT22;789;51.612;7.510;2022-09-09T00:55:49;17.20;1.00
1592;DHT22;789;51.612;7.510;2022-09-09T00:58:20;17.10;1.00
1592;DHT22;789;51.612;7.510;2022-09-09T01:00:50;17.10;1.00
1592;DHT22;789;51.612;7.510;2022-09-09T01:03:27;17.10;1.00
1592;DHT22;789;51.612;7.510;2022-09-09T01:06:01;17.20;1.00
1592;DHT22;789;51.612;7.510;2022-09-09T01:08:53;17.30;1.00
1592;DHT22;789;51.612;7.510;2022-09-09T01:11:27;17.30;1.00
1592;DHT22;789;51.612;7.510;2022-09-09T01:14:01;17.30;1.00
1592;DHT22;789;51.612;7.510;2022-09-09T01:16:31;17.30;1.00
1592;DHT22;789;51.612;7.510;2022-09-09T01:18:59;17.40;1.00
1592;DHT22;789;51.612;7.510;2022-09-09T01:21:34;17.40;1.00
1592;DHT22;789;51.612;7.510;2022-09-09T01:24:15;17.50;1.00
1592;DHT22;789;51.612;7.510;2022-09-09T01:26:48;17.50;1.00
1592;DHT22;789;51.612;7.510;2022-09-09T01:29:19;17.50;1.00
1592;DHT22;789;51.612;7.510;2022-09-09T01:31:54;17.50;1.00
1592;DHT22;789;51.612;7.510;2022-09-09T01:34:23;17.50;1.00
1592;DHT22;789;51.612;7.510;2022-09-09T01:36:55;17.30;1.00
1592;DHT22;789;51.612;7.510;2022-09-09T01:39:23;17.30;1.00
1592;DHT22;789;51.612;7.510;2022-09-09T01:41:52;17.20;1.00
1592;DHT22;789;51.612;7.510;2022-09-09T01:44:19;17.20;1.00
1592;DHT22;789;51.612;7.510;2022-09-09T01:46:47;17.30;1.00
1592;DHT22;789;51.612;7.510;2022-09-09T01:49:14;17.30;1.00
1592;DHT22;789;51.612;7.510;2022-09-09T01:51:42;17.20;1.00
1592;DHT22;789;51.612;7.510;2022-09-09T01:54:10;17.20;1.00
1592;DHT22;789;51.612;7.510;2022-09-09T01:56:46;17.20;1.00
1592;DHT22;789;51.612;7.510;2022-09-09T01:59:24;17.30;1.00
1592;DHT22;789;51.612;7.510;2022-09-09T02:02:05;17.20;1.00
1592;DHT22;789;51.612;7.510;2022-09-09T02:04:38;17.10;1.00
1592;DHT22;789;51.612;7.510;2022-09-09T02:07:19;17.10;1.00
1592;DHT22;789;51.612;7.510;2022-09-09T02:09:57;17.10;1.00
1592;DHT22;789;51.612;7.510;2022-09-09T02:12:25;17.20;1.00
1592;DHT22;789;51.612;7.510;2022-09-09T02:15:00;17.10;1.00
1592;DHT22;789;51.612;7.510;2022-09-09T02:17:31;17.10;1.00
1592;DHT22;789;51.612;7.510;2022-09-09T02:20:04;17.10;1.00
1592;DHT22;789;51.612;7.510;2022-09-09T02:22:33;17.10;1.00
1592;DHT22;789;51.612;7.510;2022-09-09T02:25:02;17.20;1.00
1592;DHT22;789;51.612;7.510;2022-09-09T02:27:30;17.20;1.00
1592;DHT22;789;51.612;7.510;2022-09-09T02:30:00;17.20;1.00
1592;DHT22;789;51.612;7.510;2022-09-09T02:32:29;17.30;1.00
1592;DHT22;789;51.612;7.510;2022-09-09T02:34:59;17.30;1.00
1592;DHT22;789;51.612;7.510;2022-09-09T02:37:32;17.30;1.00
1592;DHT22;789;51.612;7.510;2022-09-09T02:40:02;17.30;1.00
1592;DHT22;789;51.612;7.510;2022-09-09T02:42:29;17.30;1.00
1592;DHT22;789;51.612;7.510;2022-09-09T02:44:55;17.30;1.00
1592;DHT22;789;51.612;7.510;2022-09-09T02:47:31;17.20;1.00
1592;DHT22;789;51.612;7.510;2022-09-09T02:50:11;17.20;1.00
1592;DHT22;789;51.612;7.510;2022-09-09T02:52:47;17.10;1.00
1592;DHT22;789;51.612;7.510;2022-09-09T02:55:20;17.10;1.00
1592;DHT22;789;51.612;7.510;2022-09-09T02:57:49;17.20;1.00
1592;DHT22;789;51.612;7.510;2022-09-09T03:00:23;17.20;1.00
1592;DHT22;789;51.612;7.510;2022-09-09T03:02:52;17.30;1.00
1592;DHT22;789;51.612;7.510;2022-09-09T03:05:20;17.30;1.00
1592;DHT22;789;51.612;7.510;2022-09-09T03:07:47;17.30;1.00
1592;DHT22;789;51.612;7.510;2022-09-09T03:10:15;17.40;1.00
1592;DHT22;789;51.612;7.510;2022-09-09T03:12:41;17.40;1.00
1592;DHT22;789;51.612;7.510;2022-09-09T03:15:09;17.50;1.00
1592;DHT22;789;51.612;7.510;2022-09-09T03:17:36;17.40;1.00
1592;DHT22;789;51.612;7.510;2022-09-09T03:20:04;17.40;1.00
1592;DHT22;789;51.612;7.510;2022-09-09T03:22:31;17.40;1.00
1592;DHT22;789;51.612;7.510;2022-09-09T03:24:58;17.50;1.00
1592;DHT22;789;51.612;7.510;2022-09-09T03:27:25;17.50;1.00
1592;DHT22;789;51.612;7.510;2022-09-09T03:29:51;17.50;1.00
1592;DHT22;789;51.612;7.510;2022-09-09T03:32:18;17.50;1.00
1592;DHT22;789;51.612;7.510;2022-09-09T03:34:48;17.50;1.00
1592;DHT22;789;51.612;7.510;2022-09-09T03:37:16;17.40;1.00
1592;DHT22;789;51.612;7.510;2022-09-09T03:39:43;17.40;1.00
1592;DHT22;789;51.612;7.510;2022-09-09T03:42:12;17.40;1.00
1592;DHT22;789;51.612;7.510;2022-09-09T03:44:43;17.40;1.00
1592;DHT22;789;51.612;7.510;2022-09-09T03:47:15;17.30;1.00
1592;DHT22;789;51.612;7.510;2022-09-09T03:49:42;17.40;1.00
1592;DHT22;789;51.612;7.510;2022-09-09T03:52:09;17.30;1.00
1592;DHT22;789;51.612;7.510;2022-09-09T03:54:37;17.30;1.00
1592;DHT22;789;51.612;7.510;2022-09-09T03:57:04;17.50;1.00
1592;DHT22;789;51.612;7.510;2022-09-09T03:59:31;17.40;1.00
1592;DHT22;789;51.612;7.510;2022-09-09T04:01:58;17.40;1.00
1592;DHT22;789;51.612;7.510;2022-09-09T04:04:25;17.40;1.00
1592;DHT22;789;51.612;7.510;2022-09-09T04:06:52;17.30;1.00
1592;DHT22;789;51.612;7.510;2022-09-09T04:09:19;17.30;1.00
1592;DHT22;789;51.612;7.510;2022-09-09T04:11:48;17.30;1.00
1592;DHT22;789;51.612;7.510;2022-09-09T04:14:15;17.30;1.00
1592;DHT22;789;51.612;7.510;2022-09-09T04:16:42;17.30;1.00
1592;DHT22;789;51.612;7.510;2022-09-09T04:19:10;17.20;1.00
1592;DHT22;789;51.612;7.510;2022-09-09T04:21:38;17.20;1.00
1592;DHT22;789;51.612;7.510;2022-09-09T04:24:06;17.20;1.00
1592;DHT22;789;51.612;7.510;2022-09-09T04:26:33;17.20;1.00
1592;DHT22;789;51.612;7.510;2022-09-09T04:29:01;17.20;1.00
1592;DHT22;789;51.612;7.510;2022-09-09T04:31:28;17.10;1.00
1592;DHT22;789;51.612;7.510;2022-09-09T04:33:55;17.10;1.00
1592;DHT22;789;51.612;7.510;2022-09-09T04:36:22;17.00;1.00
1592;DHT22;789;51.612;7.510;2022-09-09T04:38:49;17.00;1.00
1592;DHT22;789;51.612;7.510;2022-09-09T04:41:16;17.00;1.00
1592;DHT22;789;51.612;7.510;2022-09-09T04:43:43;17.00;1.00
1592;DHT22;789;51.612;7.510;2022-09-09T04:46:11;16.90;1.00
1592;DHT22;789;51.612;7.510;2022-09-09T04:48:38;17.00;1.00
1592;DHT22;789;51.612;7.510;2022-09-09T04:51:06;17.00;1.00
1592;DHT22;789;51.612;7.510;2022-09-09T04:53:33;17.00;1.00
1592;DHT22;789;51.612;7.510;2022-09-09T04:56:04;17.00;1.00
1592;DHT22;789;51.612;7.510;2022-09-09T04:58:32;17.00;1.00
1592;DHT22;789;51.612;7.510;2022-09-09T05:01:04;17.10;1.00
1592;DHT22;789;51.612;7.510;2022-09-09T05:03:32;17.10;1.00
1592;DHT22;789;51.612;7.510;2022-09-09T05:06:04;17.10;1.00
1592;DHT22;789;51.612;7.510;2022-09-09T05:08:31;17.10;1.00
1592;DHT22;789;51.612;7.510;2022-09-09T05:10:58;17.10;1.00
1592;DHT22;789;51.612;7.510;2022-09-09T05:13:25;17.10;1.00
1592;DHT22;789;51.612;7.510;2022-09-09T05:15:53;17.10;1.00
1592;DHT22;789;51.612;7.510;2022-09-09T05:18:20;17.10;1.00
1592;DHT22;789;51.612;7.510;2022-09-09T05:20:49;17.10;1.00
1592;DHT22;789;51.612;7.510;2022-09-09T05:23:16;17.10;1.00
1592;DHT22;789;51.612;7.510;2022-09-09T05:25:43;17.10;1.00
1592;DHT22;789;51.612;7.510;2022-09-09T05:28:12;17.00;1.00
1592;DHT22;789;51.612;7.510;2022-09-09T05:30:39;17.10;1.00
1592;DHT22;789;51.612;7.510;2022-09-09T05:33:05;17.10;1.00
1592;DHT22;789;51.612;7.510;2022-09-09T05:35:34;17.10;1.00
1592;DHT22;789;51.612;7.510;2022-09-09T05:38:02;17.20;1.00
1592;DHT22;789;51.612;7.510;2022-09-09T05:40:29;17.20;1.00
1592;DHT22;789;51.612;7.510;2022-09-09T05:43:00;17.30;1.00
1592;DHT22;789;51.612;7.510;2022-09-09T05:45:27;17.30;1.00
1592;DHT22;789;51.612;7.510;2022-09-09T05:47:54;17.40;1.00
1592;DHT22;789;51.612;7.510;2022-09-09T05:50:20;17.30;1.00
1592;DHT22;789;51.612;7.510;2022-09-09T05:52:47;17.30;1.00
1592;DHT22;789;51.612;7.510;2022-09-09T05:55:16;17.30;1.00
1592;DHT22;789;51.612;7.510;2022-09-09T05:57:48;17.30;1.00
1592;DHT22;789;51.612;7.510;2022-09-09T06:00:17;17.30;1.00
1592;DHT22;789;51.612;7.510;2022-09-09T06:02:50;17.40;1.00
1592;DHT22;789;51.612;7.510;2022-09-09T06:05:17;17.40;1.00
1592;DHT22;789;51.612;7.510;2022-09-09T06:07:45;17.40;1.00
1592;DHT22;789;51.612;7.510;2022-09-09T06:10:12;17.40;1.00
1592;DHT22;789;51.612;7.510;2022-09-09T06:12:41;17.40;1.00
1592;DHT22;789;51.612;7.510;2022-09-09T06:15:09;17.40;1.00
1592;DHT22;789;51.612;7.510;2022-09-09T06:17:35;17.50;1.00
1592;DHT22;789;51.612;7.510;2022-09-09T06:20:03;17.60;1.00
1592;DHT22;789;51.612;7.510;2022-09-09T06:22:30;17.60;1.00
1592;DHT22;789;51.612;7.510;2022-09-09T06:24:57;17.70;1.00
1592;DHT22;789;51.612;7.510;2022-09-09T06:27:24;17.80;1.00
1592;DHT22;789;51.612;7.510;2022-09-09T06:29:52;18.00;1.00
1592;DHT22;789;51.612;7.510;2022-09-09T06:32:19;17.90;1.00
1592;DHT22;789;51.612;7.510;2022-09-09T06:34:45;17.90;1.00
1592;DHT22;789;51.612;7.510;2022-09-09T06:37:14;18.00;1.00
1592;DHT22;789;51.612;7.510;2022-09-09T06:39:41;18.10;1.00
1592;DHT22;789;51.612;7.510;2022-09-09T06:42:08;18.20;1.00
1592;DHT22;789;51.612;7.510;2022-09-09T06:44:35;18.20;1.00
1592;DHT22;789;51.612;7.510;2022-09-09T06:47:03;18.20;1.00
1592;DHT22;789;51.612;7.510;2022-09-09T06:49:30;18.20;1.00
1592;DHT22;789;51.612;7.510;2022-09-09T06:51:57;18.20;1.00
1592;DHT22;789;51.612;7.510;2022-09-09T06:54:24;18.20;1.00
1592;DHT22;789;51.612;7.510;2022-09-09T06:56:51;18.30;1.00
1592;DHT22;789;51.612;7.510;2022-09-09T06:59:18;18.30;1.00
1592;DHT22;789;51.612;7.510;2022-09-09T07:01:44;18.30;1.00
1592;DHT22;789;51.612;7.510;2022-09-09T07:04:13;18.30;1.00
1592;DHT22;789;51.612;7.510;2022-09-09T07:06:41;18.40;1.00
1592;DHT22;789;51.612;7.510;2022-09-09T07:09:11;18.50;1.00
1592;DHT22;789;51.612;7.510;2022-09-09T07:11:39;18.50;1.00
1592;DHT22;789;51.612;7.510;2022-09-09T07:14:08;18.50;1.00
1592;DHT22;789;51.612;7.510;2022-09-09T07:16:37;18.50;1.00
1592;DHT22;789;51.612;7.510;2022-09-09T07:19:04;18.50;1.00
1592;DHT22;789;51.612;7.510;2022-09-09T07:21:33;18.50;1.00
1592;DHT22;789;51.612;7.510;2022-09-09T07:24:00;18.50;1.00
1592;DHT22;789;51.612;7.510;2022-09-09T07:26:29;18.50;1.00
1592;DHT22;789;51.612;7.510;2022-09-09T07:28:56;18.40;1.00
1592;DHT22;789;51.612;7.510;2022-09-09T07:31:26;18.50;1.00
1592;DHT22;789;51.612;7.510;2022-09-09T07:33:53;18.50;1.00
1592;DHT22;789;51.612;7.510;2022-09-09T07:36:21;18.50;1.00
1592;DHT22;789;51.612;7.510;2022-09-09T07:38:51;18.50;1.00
1592;DHT22;789;51.612;7.510;2022-09-09T07:41:21;18.60;1.00
1592;DHT22;789;51.612;7.510;2022-09-09T07:43:49;18.70;1.00
1592;DHT22;789;51.612;7.510;2022-09-09T07:46:18;18.80;1.00
1592;DHT22;789;51.612;7.510;2022-09-09T07:48:46;18.90;1.00
1592;DHT22;789;51.612;7.510;2022-09-09T07:51:18;19.00;1.00
1592;DHT22;789;51.612;7.510;2022-09-09T07:53:46;19.30;1.00
1592;DHT22;789;51.612;7.510;2022-09-09T07:56:16;20.40;1.00
1592;DHT22;789;51.612;7.510;2022-09-09T07:58:45;22.00;1.00
1592;DHT22;789;51.612;7.510;2022-09-09T08:01:14;23.50;1.00
1592;DHT22;789;51.612;7.510;2022-09-09T08:03:41;24.70;1.00
1592;DHT22;789;51.612;7.510;2022-09-09T08:06:08;25.80;1.00
1592;DHT22;789;51.612;7.510;2022-09-09T08:08:36;26.30;1.00
1592;DHT22;789;51.612;7.510;2022-09-09T08:11:06;27.00;1.00
1592;DHT22;789;51.612;7.510;2022-09-09T08:13:36;27.50;1.00
1592;DHT22;789;51.612;7.510;2022-09-09T08:16:07;27.60;1.00
1592;DHT22;789;51.612;7.510;2022-09-09T08:18:35;27.90;1.00
1592;DHT22;789;51.612;7.510;2022-09-09T08:21:08;28.60;1.00
1592;DHT22;789;51.612;7.510;2022-09-09T08:23:36;29.70;1.00
1592;DHT22;789;51.612;7.510;2022-09-09T08:26:04;30.50;1.00
1592;DHT22;789;51.612;7.510;2022-09-09T08:28:31;30.60;1.00
1592;DHT22;789;51.612;7.510;2022-09-09T08:31:07;29.80;1.00
1592;DHT22;789;51.612;7.510;2022-09-09T08:33:34;28.60;1.00
1592;DHT22;789;51.612;7.510;2022-09-09T08:36:04;28.10;1.00
1592;DHT22;789;51.612;7.510;2022-09-09T08:38:31;28.50;1.00
1592;DHT22;789;51.612;7.510;2022-09-09T08:41:07;29.40;1.00
1592;DHT22;789;51.612;7.510;2022-09-09T08:43:37;30.40;1.00
1592;DHT22;789;51.612;7.510;2022-09-09T08:46:09;30.60;1.00
1592;DHT22;789;51.612;7.510;2022-09-09T08:48:50;30.60;1.00
1592;DHT22;789;51.612;7.510;2022-09-09T08:51:24;30.10;1.00
1592;DHT22;789;51.612;7.510;2022-09-09T08:53:53;29.40;1.00
1592;DHT22;789;51.612;7.510;2022-09-09T08:56:22;28.60;1.00
1592;DHT22;789;51.612;7.510;2022-09-09T08:59:00;27.70;1.00
1592;DHT22;789;51.612;7.510;2022-09-09T09:01:41;27.20;1.00
1592;DHT22;789;51.612;7.510;2022-09-09T09:04:20;26.30;1.00
1592;DHT22;789;51.612;7.510;2022-09-09T09:06:58;25.80;1.00
1592;DHT22;789;51.612;7.510;2022-09-09T09:09:35;25.50;1.00
1592;DHT22;789;51.612;7.510;2022-09-09T09:12:14;25.00;1.00
1592;DHT22;789;51.612;7.510;2022-09-09T09:14:43;24.90;1.00
1592;DHT22;789;51.612;7.510;2022-09-09T09:17:15;25.30;1.00
1592;DHT22;789;51.612;7.510;2022-09-09T09:19:43;26.00;1.00
1592;DHT22;789;51.612;7.510;2022-09-09T09:22:16;26.30;1.00
1592;DHT22;789;51.612;7.510;2022-09-09T09:24:50;26.90;1.00
1592;DHT22;789;51.612;7.510;2022-09-09T09:27:22;27.30;1.00
1592;DHT22;789;51.612;7.510;2022-09-09T09:29:54;28.10;1.00
1592;DHT22;789;51.612;7.510;2022-09-09T09:32:24;29.50;1.00
1592;DHT22;789;51.612;7.510;2022-09-09T09:34:55;30.50;1.00
1592;DHT22;789;51.612;7.510;2022-09-09T09:37:27;30.80;1.00
1592;DHT22;789;51.612;7.510;2022-09-09T09:39:54;30.40;1.00
1592;DHT22;789;51.612;7.510;2022-09-09T09:42:21;29.50;1.00
1592;DHT22;789;51.612;7.510;2022-09-09T09:44:48;29.10;1.00
1592;DHT22;789;51.612;7.510;2022-09-09T09:47:17;29.50;1.00
1592;DHT22;789;51.612;7.510;2022-09-09T09:49:55;30.20;1.00
1592;DHT22;789;51.612;7.510;2022-09-09T09:52:25;30.80;1.00
1592;DHT22;789;51.612;7.510;2022-09-09T09:54:54;30.80;1.00
1592;DHT22;789;51.612;7.510;2022-09-09T09:57:26;30.00;1.00
1592;DHT22;789;51.612;7.510;2022-09-09T10:00:02;29.20;1.00
1592;DHT22;789;51.612;7.510;2022-09-09T10:02:38;28.40;1.00
1592;DHT22;789;51.612;7.510;2022-09-09T10:05:14;27.40;1.00
1592;DHT22;789;51.612;7.510;2022-09-09T10:07:41;26.60;1.00
1592;DHT22;789;51.612;7.510;2022-09-09T10:10:15;25.80;1.00
1592;DHT22;789;51.612;7.510;2022-09-09T10:12:54;25.20;1.00
1592;DHT22;789;51.612;7.510;2022-09-09T10:15:34;25.30;1.00
1592;DHT22;789;51.612;7.510;2022-09-09T10:18:14;25.50;1.00
1592;DHT22;789;51.612;7.510;2022-09-09T10:20:51;26.40;1.00
1592;DHT22;789;51.612;7.510;2022-09-09T10:23:34;27.30;1.00
1592;DHT22;789;51.612;7.510;2022-09-09T10:26:20;28.00;1.00
1592;DHT22;789;51.612;7.510;2022-09-09T10:29:18;29.40;1.00
1592;DHT22;789;51.612;7.510;2022-09-09T10:31:55;30.50;1.00
1592;DHT22;789;51.612;7.510;2022-09-09T10:34:51;30.60;1.00
1592;DHT22;789;51.612;7.510;2022-09-09T10:37:34;29.60;1.00
1592;DHT22;789;51.612;7.510;2022-09-09T10:40:20;29.00;1.00
1592;DHT22;789;51.612;7.510;2022-09-09T10:42:49;29.80;1.00
1592;DHT22;789;51.612;7.510;2022-09-09T10:45:20;31.30;1.00
1592;DHT22;789;51.612;7.510;2022-09-09T10:48:00;32.90;1.00
1592;DHT22;789;51.612;7.510;2022-09-09T10:53:32;35.00;1.00
1592;DHT22;789;51.612;7.510;2022-09-09T10:56:05;35.00;1.00
1592;DHT22;789;51.612;7.510;2022-09-09T10:58:37;34.60;1.00
1592;DHT22;789;51.612;7.510;2022-09-09T11:01:12;34.80;1.00
1592;DHT22;789;51.612;7.510;2022-09-09T11:03:44;34.20;1.00
1592;DHT22;789;51.612;7.510;2022-09-09T11:06:14;33.20;1.00
1592;DHT22;789;51.612;7.510;2022-09-09T11:08:47;32.20;1.00
1592;DHT22;789;51.612;7.510;2022-09-09T11:11:19;31.30;1.00
1592;DHT22;789;51.612;7.510;2022-09-09T11:13:53;31.40;1.00
1592;DHT22;789;51.612;7.510;2022-09-09T11:16:27;32.20;1.00
1592;DHT22;789;51.612;7.510;2022-09-09T11:18:58;32.60;1.00
1592;DHT22;789;51.612;7.510;2022-09-09T11:21:31;32.40;1.00
1592;DHT22;789;51.612;7.510;2022-09-09T11:24:04;32.10;1.00
1592;DHT22;789;51.612;7.510;2022-09-09T11:26:41;32.10;1.00
1592;DHT22;789;51.612;7.510;2022-09-09T11:29:40;32.70;1.00
1592;DHT22;789;51.612;7.510;2022-09-09T11:32:25;32.40;1.00
1592;DHT22;789;51.612;7.510;2022-09-09T11:35:02;33.10;1.00
1592;DHT22;789;51.612;7.510;2022-09-09T11:37:46;33.70;1.00
1592;DHT22;789;51.612;7.510;2022-09-09T11:40:19;33.40;1.00
1592;DHT22;789;51.612;7.510;2022-09-09T11:42:49;33.30;1.00
1592;DHT22;789;51.612;7.510;2022-09-09T11:45:32;33.30;1.00
1592;DHT22;789;51.612;7.510;2022-09-09T11:48:01;33.10;1.00
1592;DHT22;789;51.612;7.510;2022-09-09T11:50:35;31.70;1.00
1592;DHT22;789;51.612;7.510;2022-09-09T11:56:02;30.20;1.00
1592;DHT22;789;51.612;7.510;2022-09-09T11:58:37;29.70;1.00
1592;DHT22;789;51.612;7.510;2022-09-09T12:06:46;28.90;1.00
1592;DHT22;789;51.612;7.510;2022-09-09T12:09:19;28.90;1.00
1592;DHT22;789;51.612;7.510;2022-09-09T12:11:51;28.10;1.00
1592;DHT22;789;51.612;7.510;2022-09-09T12:14:21;27.70;1.00
1592;DHT22;789;51.612;7.510;2022-09-09T12:16:48;27.40;1.00
1592;DHT22;789;51.612;7.510;2022-09-09T12:19:19;27.30;1.00
1592;DHT22;789;51.612;7.510;2022-09-09T12:21:57;26.90;1.00
1592;DHT22;789;51.612;7.510;2022-09-09T12:24:30;26.50;1.00
1592;DHT22;789;51.612;7.510;2022-09-09T12:27:04;26.20;1.00
1592;DHT22;789;51.612;7.510;2022-09-09T12:29:41;25.80;1.00
1592;DHT22;789;51.612;7.510;2022-09-09T12:32:11;25.40;1.00
1592;DHT22;789;51.612;7.510;2022-09-09T12:34:41;24.90;1.00
1592;DHT22;789;51.612;7.510;2022-09-09T12:37:16;24.40;1.00
1592;DHT22;789;51.612;7.510;2022-09-09T12:39:47;24.00;1.00
1592;DHT22;789;51.612;7.510;2022-09-09T12:42:18;23.90;1.00
1592;DHT22;789;51.612;7.510;2022-09-09T12:44:53;23.50;1.00
1592;DHT22;789;51.612;7.510;2022-09-09T12:47:23;23.30;1.00
1592;DHT22;789;51.612;7.510;2022-09-09T12:49:53;23.10;1.00
1592;DHT22;789;51.612;7.510;2022-09-09T12:52:25;23.10;1.00
1592;DHT22;789;51.612;7.510;2022-09-09T12:54:55;23.10;1.00
1592;DHT22;789;51.612;7.510;2022-09-09T12:57:26;23.20;1.00
1592;DHT22;789;51.612;7.510;2022-09-09T13:00:05;23.00;1.00
1592;DHT22;789;51.612;7.510;2022-09-09T13:02:34;22.90;1.00
1592;DHT22;789;51.612;7.510;2022-09-09T13:05:13;23.00;1.00
1592;DHT22;789;51.612;7.510;2022-09-09T13:07:41;22.90;1.00
1592;DHT22;789;51.612;7.510;2022-09-09T13:10:11;22.60;1.00
1592;DHT22;789;51.612;7.510;2022-09-09T13:12:40;22.60;1.00
1592;DHT22;789;51.612;7.510;2022-09-09T13:15:19;22.70;1.00
1592;DHT22;789;51.612;7.510;2022-09-09T13:17:53;22.80;1.00
1592;DHT22;789;51.612;7.510;2022-09-09T13:20:22;22.90;1.00
1592;DHT22;789;51.612;7.510;2022-09-09T13:22:50;22.90;1.00
1592;DHT22;789;51.612;7.510;2022-09-09T13:25:23;23.00;1.00
1592;DHT22;789;51.612;7.510;2022-09-09T13:27:56;23.00;1.00
1592;DHT22;789;51.612;7.510;2022-09-09T13:30:25;23.10;1.00
1592;DHT22;789;51.612;7.510;2022-09-09T13:33:20;23.10;1.00
1592;DHT22;789;51.612;7.510;2022-09-09T13:35:50;23.10;1.00
1592;DHT22;789;51.612;7.510;2022-09-09T13:38:17;23.10;1.00
1592;DHT22;789;51.612;7.510;2022-09-09T13:41:00;23.20;1.00
1592;DHT22;789;51.612;7.510;2022-09-09T13:43:31;23.60;1.00
1592;DHT22;789;51.612;7.510;2022-09-09T13:46:01;23.70;1.00
1592;DHT22;789;51.612;7.510;2022-09-09T13:48:29;23.60;1.00
1592;DHT22;789;51.612;7.510;2022-09-09T13:51:00;23.50;1.00
1592;DHT22;789;51.612;7.510;2022-09-09T13:53:27;23.50;1.00
1592;DHT22;789;51.612;7.510;2022-09-09T13:55:54;23.60;1.00
1592;DHT22;789;51.612;7.510;2022-09-09T13:58:22;23.70;1.00
1592;DHT22;789;51.612;7.510;2022-09-09T14:00:52;23.70;1.00
1592;DHT22;789;51.612;7.510;2022-09-09T14:03:20;23.80;1.00
1592;DHT22;789;51.612;7.510;2022-09-09T14:05:47;23.60;1.00
1592;DHT22;789;51.612;7.510;2022-09-09T14:08:24;23.40;1.00
1592;DHT22;789;51.612;7.510;2022-09-09T14:10:51;23.40;1.00
1592;DHT22;789;51.612;7.510;2022-09-09T14:13:21;23.20;1.00
1592;DHT22;789;51.612;7.510;2022-09-09T14:15:48;23.20;1.00
1592;DHT22;789;51.612;7.510;2022-09-09T14:18:17;23.20;1.00
1592;DHT22;789;51.612;7.510;2022-09-09T14:20:44;23.00;1.00
1592;DHT22;789;51.612;7.510;2022-09-09T14:23:12;23.00;1.00
1592;DHT22;789;51.612;7.510;2022-09-09T14:25:41;22.70;1.00
1592;DHT22;789;51.612;7.510;2022-09-09T14:28:10;22.70;1.00
1592;DHT22;789;51.612;7.510;2022-09-09T14:30:38;22.40;1.00
1592;DHT22;789;51.612;7.510;2022-09-09T14:33:06;22.10;1.00
1592;DHT22;789;51.612;7.510;2022-09-09T14:35:34;22.00;1.00
1592;DHT22;789;51.612;7.510;2022-09-09T14:38:02;21.80;1.00
1592;DHT22;789;51.612;7.510;2022-09-09T14:40:29;21.80;1.00
1592;DHT22;789;51.612;7.510;2022-09-09T14:42:56;21.80;1.00
1592;DHT22;789;51.612;7.510;2022-09-09T14:45:23;21.80;1.00
1592;DHT22;789;51.612;7.510;2022-09-09T14:47:52;21.80;1.00
1592;DHT22;789;51.612;7.510;2022-09-09T14:50:19;21.90;1.00
1592;DHT22;789;51.612;7.510;2022-09-09T14:52:48;22.10;1.00
1592;DHT22;789;51.612;7.510;2022-09-09T14:55:15;22.20;1.00
1592;DHT22;789;51.612;7.510;2022-09-09T14:57:43;22.50;1.00
1592;DHT22;789;51.612;7.510;2022-09-09T15:00:10;22.60;1.00
1592;DHT22;789;51.612;7.510;2022-09-09T15:02:39;22.50;1.00
1592;DHT22;789;51.612;7.510;2022-09-09T15:05:06;22.40;1.00
1592;DHT22;789;51.612;7.510;2022-09-09T15:07:33;22.20;1.00
1592;DHT22;789;51.612;7.510;2022-09-09T15:10:03;22.20;1.00
1592;DHT22;789;51.612;7.510;2022-09-09T15:12:30;22.30;1.00
1592;DHT22;789;51.612;7.510;2022-09-09T15:14:57;22.20;1.00
1592;DHT22;789;51.612;7.510;2022-09-09T15:17:23;22.20;1.00
1592;DHT22;789;51.612;7.510;2022-09-09T15:19:52;22.10;1.00
1592;DHT22;789;51.612;7.510;2022-09-09T15:22:20;21.90;1.00
1592;DHT22;789;51.612;7.510;2022-09-09T15:24:47;21.80;1.00
1592;DHT22;789;51.612;7.510;2022-09-09T15:27:17;21.70;1.00
1592;DHT22;789;51.612;7.510;2022-09-09T15:29:44;21.70;1.00
1592;DHT22;789;51.612;7.510;2022-09-09T15:32:12;21.60;1.00
1592;DHT22;789;51.612;7.510;2022-09-09T15:34:39;21.60;1.00
1592;DHT22;789;51.612;7.510;2022-09-09T15:37:06;21.70;1.00
1592;DHT22;789;51.612;7.510;2022-09-09T15:39:36;21.60;1.00
1592;DHT22;789;51.612;7.510;2022-09-09T15:42:03;21.70;1.00
1592;DHT22;789;51.612;7.510;2022-09-09T15:44:38;21.60;1.00
1592;DHT22;789;51.612;7.510;2022-09-09T15:47:05;21.60;1.00
1592;DHT22;789;51.612;7.510;2022-09-09T15:49:32;21.70;1.00
1592;DHT22;789;51.612;7.510;2022-09-09T15:51:59;21.80;1.00
1592;DHT22;789;51.612;7.510;2022-09-09T15:54:31;21.60;1.00
1592;DHT22;789;51.612;7.510;2022-09-09T15:57:00;21.30;1.00
1592;DHT22;789;51.612;7.510;2022-09-09T15:59:28;20.90;1.00
1592;DHT22;789;51.612;7.510;2022-09-09T16:01:57;20.10;1.00
1592;DHT22;789;51.612;7.510;2022-09-09T16:04:25;19.50;1.00
1592;DHT22;789;51.612;7.510;2022-09-09T16:06:56;18.90;1.00
1592;DHT22;789;51.612;7.510;2022-09-09T16:09:24;18.60;1.00
1592;DHT22;789;51.612;7.510;2022-09-09T16:11:51;18.50;1.00
1592;DHT22;789;51.612;7.510;2022-09-09T16:14:21;18.40;1.00
1592;DHT22;789;51.612;7.510;2022-09-09T16:16:48;18.50;1.00
1592;DHT22;789;51.612;7.510;2022-09-09T16:19:16;18.50;1.00
1592;DHT22;789;51.612;7.510;2022-09-09T16:21:44;18.50;1.00
1592;DHT22;789;51.612;7.510;2022-09-09T16:24:14;18.50;1.00
1592;DHT22;789;51.612;7.510;2022-09-09T16:26:43;18.50;1.00
1592;DHT22;789;51.612;7.510;2022-09-09T16:29:10;18.50;1.00
1592;DHT22;789;51.612;7.510;2022-09-09T16:31:37;18.40;1.00
1592;DHT22;789;51.612;7.510;2022-09-09T16:34:05;18.30;1.00
1592;DHT22;789;51.612;7.510;2022-09-09T16:36:35;18.30;1.00
1592;DHT22;789;51.612;7.510;2022-09-09T16:39:04;18.20;1.00
1592;DHT22;789;51.612;7.510;2022-09-09T16:41:32;18.30;1.00
1592;DHT22;789;51.612;7.510;2022-09-09T16:44:01;18.10;1.00
1592;DHT22;789;51.612;7.510;2022-09-09T16:46:32;18.10;1.00
1592;DHT22;789;51.612;7.510;2022-09-09T16:49:02;18.20;1.00
1592;DHT22;789;51.612;7.510;2022-09-09T16:51:30;18.20;1.00
1592;DHT22;789;51.612;7.510;2022-09-09T16:54:00;18.20;1.00
1592;DHT22;789;51.612;7.510;2022-09-09T16:56:30;18.30;1.00
1592;DHT22;789;51.612;7.510;2022-09-09T16:59:00;18.40;1.00
1592;DHT22;789;51.612;7.510;2022-09-09T17:01:32;18.40;1.00
1592;DHT22;789;51.612;7.510;2022-09-09T17:04:03;18.50;1.00
1592;DHT22;789;51.612;7.510;2022-09-09T17:06:31;18.60;1.00
1592;DHT22;789;51.612;7.510;2022-09-09T17:09:03;18.60;1.00